createdAt,value
2023-04-11T00:00:46.621Z,98462.59
2023-04-11T00:03:53.313Z,98455.00
2023-04-11T00:07:00.240Z,98452.69
2023-04-11T00:10:07.672Z,98459.53
2023-04-11T00:13:19.920Z,98437.25
2023-04-11T00:16:25.757Z,98442.13
2023-04-11T00:19:33.667Z,98436.44
2023-04-11T00:22:39.197Z,98438.22
2023-04-11T00:25:45.716Z,98430.72
2023-04-11T00:28:54.252Z,98424.25
2023-04-11T00:32:01.276Z,98421.06
2023-04-11T00:35:08.979Z,98426.75
2023-04-11T00:38:15.472Z,98419.63
2023-04-11T00:41:21.454Z,98417.63
2023-04-11T00:44:30.420Z,98408.91
2023-04-11T00:47:37.637Z,98407.03
2023-04-11T00:50:46.153Z,98410.84
2023-04-11T00:53:51.987Z,98400.06
2023-04-11T00:57:01.997Z,98406.28
2023-04-11T01:00:12.559Z,98401.13
2023-04-11T01:03:19.676Z,98395.91
2023-04-11T01:06:27.842Z,98394.63
2023-04-11T01:09:38.356Z,98386.66
2023-04-11T01:12:46.622Z,98379.09
2023-04-11T01:15:55.668Z,98377.91
2023-04-11T01:19:02.426Z,98381.50
2023-04-11T01:22:09.055Z,98377.22
2023-04-11T01:25:18.901Z,98374.63
2023-04-11T01:28:25.723Z,98378.06
2023-04-11T01:31:32.747Z,98374.84
2023-04-11T01:34:42.903Z,98375.19
2023-04-11T01:37:49.701Z,98373.25
2023-04-11T01:41:01.180Z,98374.59
2023-04-11T01:44:08.412Z,98367.94
2023-04-11T01:47:15.901Z,98369.94
2023-04-11T01:50:22.259Z,98360.31
2023-04-11T01:53:28.049Z,98358.31
2023-04-11T01:56:44.363Z,98347.91
2023-04-11T01:59:50.061Z,98352.00
2023-04-11T02:02:56.627Z,98356.19
2023-04-11T02:06:02.585Z,98349.22
2023-04-11T02:09:09.094Z,98349.56
2023-04-11T02:12:17.309Z,98345.00
2023-04-11T02:15:25.548Z,98328.47
2023-04-11T02:18:31.263Z,98327.63
2023-04-11T02:21:38.285Z,98318.53
2023-04-11T02:24:44.544Z,98314.72
2023-04-11T02:27:53.868Z,98311.09
2023-04-11T02:31:01.714Z,98303.84
2023-04-11T02:34:08.289Z,98292.22
2023-04-11T02:37:13.918Z,98308.34
2023-04-11T02:40:20.660Z,98294.56
2023-04-11T02:43:29.119Z,98288.47
2023-04-11T02:46:35.787Z,98288.59
2023-04-11T02:49:44.322Z,98284.44
2023-04-11T02:52:54.145Z,98274.69
2023-04-11T02:56:03.766Z,98265.88
2023-04-11T02:59:12.952Z,98267.69
2023-04-11T03:02:18.986Z,98265.97
2023-04-11T03:05:26.051Z,98269.41
2023-04-11T03:08:32.795Z,98265.91
2023-04-11T03:11:41.531Z,98274.88
2023-04-11T03:14:50.148Z,98269.66
2023-04-11T03:17:56.706Z,98278.47
2023-04-11T03:21:02.587Z,98278.97
2023-04-11T03:24:12.811Z,98263.97
2023-04-11T03:27:19.970Z,98277.75
2023-04-11T03:30:32.624Z,98276.28
2023-04-11T03:33:38.666Z,98262.72
2023-04-11T03:36:45.109Z,98265.56
2023-04-11T03:39:50.937Z,98272.72
2023-04-11T03:43:04.391Z,98266.28
2023-04-11T03:46:15.847Z,98256.72
2023-04-11T03:49:25.886Z,98247.56
2023-04-11T03:52:34.892Z,98247.91
2023-04-11T03:55:43.243Z,98237.31
2023-04-11T03:58:50.865Z,98236.94
2023-04-11T04:02:02.672Z,98228.44
2023-04-11T04:05:10.500Z,98223.09
2023-04-11T04:08:18.589Z,98211.72
2023-04-11T04:11:28.475Z,98205.63
2023-04-11T04:14:36.326Z,98200.41
2023-04-11T04:17:44.793Z,98198.91
2023-04-11T04:20:57.366Z,98207.34
2023-04-11T04:24:05.413Z,98201.31
2023-04-11T04:27:35.469Z,98199.97
2023-04-11T04:30:41.413Z,98192.47
2023-04-11T04:33:54.066Z,98197.00
2023-04-11T04:37:04.072Z,98196.34
2023-04-11T04:40:20.748Z,98190.59
2023-04-11T04:43:36.824Z,98192.81
2023-04-11T04:47:06.150Z,98188.41
2023-04-11T04:50:14.863Z,98192.50
2023-04-11T04:53:21.412Z,98187.97
2023-04-11T04:56:32.405Z,98170.03
2023-04-11T04:59:39.787Z,98163.38
2023-04-11T05:02:49.981Z,98164.31
2023-04-11T05:05:59.793Z,98156.25
2023-04-11T05:09:06.375Z,98150.31
2023-04-11T05:12:13.972Z,98147.56
2023-04-11T05:15:23.283Z,98127.22
2023-04-11T05:18:30.826Z,98132.28
2023-04-11T05:21:40.359Z,98132.50
2023-04-11T05:24:47.007Z,98130.19
2023-04-11T05:27:52.750Z,98128.41
2023-04-11T05:31:03.352Z,98126.31
2023-04-11T05:34:09.341Z,98110.38
2023-04-11T05:37:18.964Z,98109.25
2023-04-11T05:40:24.791Z,98103.44
2023-04-11T05:43:31.232Z,98102.75
2023-04-11T05:46:39.899Z,98094.38
2023-04-11T05:49:46.741Z,98087.81
2023-04-11T05:52:55.008Z,98081.34
2023-04-11T05:56:01.910Z,98091.88
2023-04-11T05:59:07.572Z,98094.38
2023-04-11T06:02:14.012Z,98095.72
2023-04-11T06:05:21.417Z,98097.41
2023-04-11T06:08:30.538Z,98082.44
2023-04-11T06:11:36.159Z,98081.66
2023-04-11T06:14:42.692Z,98071.50
2023-04-11T06:17:48.580Z,98075.31
2023-04-11T06:20:55.120Z,98063.09
2023-04-11T06:24:13.839Z,98072.13
2023-04-11T06:27:20.111Z,98062.63
2023-04-11T06:30:26.158Z,98064.59
2023-04-11T06:33:32.657Z,98071.63
2023-04-11T06:36:38.244Z,98057.22
2023-04-11T06:39:47.409Z,98040.56
2023-04-11T06:42:53.105Z,98038.88
2023-04-11T06:45:59.429Z,98040.00
2023-04-11T06:49:07.404Z,98029.19
2023-04-11T06:52:13.813Z,98032.88
2023-04-11T06:55:23.280Z,98023.13
2023-04-11T06:58:29.630Z,98019.63
2023-04-11T07:01:38.040Z,98029.38
2023-04-11T07:04:44.818Z,98030.44
2023-04-11T07:07:51.044Z,98044.91
2023-04-11T07:11:00.027Z,98038.06
2023-04-11T07:14:06.152Z,98041.47
2023-04-11T07:17:12.539Z,98036.00
2023-04-11T07:20:18.232Z,98046.22
2023-04-11T07:23:24.825Z,98038.97
2023-04-11T07:26:33.220Z,98038.00
2023-04-11T07:29:39.577Z,98017.84
2023-04-11T07:32:45.288Z,98013.94
2023-04-11T07:35:51.786Z,98003.16
2023-04-11T07:38:57.979Z,97985.19
2023-04-11T07:42:07.247Z,97974.66
2023-04-11T07:45:13.353Z,97975.56
2023-04-11T07:48:19.835Z,97971.84
2023-04-11T07:51:26.672Z,97979.44
2023-04-11T07:54:33.065Z,97986.38
2023-04-11T07:57:41.332Z,97978.59
2023-04-11T08:00:47.812Z,97984.00
2023-04-11T08:03:54.789Z,97978.88
2023-04-11T08:07:01.455Z,97975.78
2023-04-11T08:10:08.881Z,97972.94
2023-04-11T08:13:17.901Z,97962.50
2023-04-11T08:16:23.640Z,97959.09
2023-04-11T08:19:30.180Z,97959.19
2023-04-11T08:22:37.045Z,97951.72
2023-04-11T08:25:43.407Z,97943.69
2023-04-11T08:28:51.772Z,97940.72
2023-04-11T08:31:58.474Z,97933.63
2023-04-11T08:35:05.159Z,97926.44
2023-04-11T08:38:14.408Z,97925.22
2023-04-11T08:41:20.983Z,97926.16
2023-04-11T08:44:30.477Z,97919.44
2023-04-11T08:47:36.115Z,97914.72
2023-04-11T08:50:44.171Z,97902.84
2023-04-11T08:53:50.137Z,97899.31
2023-04-11T08:56:56.557Z,97888.75
2023-04-11T09:00:12.119Z,97886.63
2023-04-11T09:03:20.346Z,97883.84
2023-04-11T09:06:26.883Z,97868.00
2023-04-11T09:09:37.146Z,97870.75
2023-04-11T09:12:42.883Z,97880.03
2023-04-11T09:16:09.371Z,97873.44
2023-04-11T09:19:27.567Z,97870.56
2023-04-11T09:22:40.052Z,97855.50
2023-04-11T09:25:47.839Z,97853.38
2023-04-11T09:28:55.536Z,97854.03
2023-04-11T09:32:04.055Z,97846.03
2023-04-11T09:35:16.167Z,97838.88
2023-04-11T09:38:33.885Z,97838.38
2023-04-11T09:41:40.257Z,97828.16
2023-04-11T09:44:45.970Z,97826.94
2023-04-11T09:47:57.081Z,97822.50
2023-04-11T09:51:07.944Z,97815.72
2023-04-11T09:54:14.641Z,97803.94
2023-04-11T09:57:22.834Z,97800.56
2023-04-11T10:00:32.750Z,97786.69
2023-04-11T10:03:43.632Z,97785.31
2023-04-11T10:07:09.273Z,97780.00
2023-04-11T10:10:21.864Z,97769.16
2023-04-11T10:13:45.728Z,97763.53
2023-04-11T10:17:21.387Z,97760.16
2023-04-11T10:20:50.723Z,97765.97
2023-04-11T10:24:16.669Z,97762.13
2023-04-11T10:27:53.766Z,97758.97
2023-04-11T10:31:09.233Z,97761.28
2023-04-11T10:34:17.351Z,97748.09
2023-04-11T10:37:36.383Z,97747.88
2023-04-11T10:41:19.731Z,97734.38
2023-04-11T10:44:25.511Z,97735.19
2023-04-11T10:47:32.120Z,97739.72
2023-04-11T10:50:43.196Z,97723.19
2023-04-11T10:53:52.650Z,97715.47
2023-04-11T10:56:59.575Z,97710.00
2023-04-11T11:00:15.610Z,97704.34
2023-04-11T11:03:24.130Z,97709.84
2023-04-11T11:06:31.251Z,97706.34
2023-04-11T11:09:39.595Z,97711.09
2023-04-11T11:12:56.727Z,97709.00
2023-04-11T11:16:02.648Z,97707.69
2023-04-11T11:19:10.151Z,97703.75
2023-04-11T11:22:18.783Z,97707.28
2023-04-11T11:25:28.473Z,97709.44
2023-04-11T11:28:34.153Z,97704.13
2023-04-11T11:31:42.869Z,97705.88
2023-04-11T11:34:48.535Z,97707.44
2023-04-11T11:37:56.878Z,97711.00
2023-04-11T11:41:06.277Z,97707.97
2023-04-11T11:44:25.873Z,97698.13
2023-04-11T11:47:31.567Z,97709.56
2023-04-11T11:50:37.944Z,97704.16
2023-04-11T11:53:43.844Z,97706.63
2023-04-11T11:56:55.711Z,97705.34
2023-04-11T12:00:09.594Z,97708.31
2023-04-11T12:03:24.139Z,97703.19
2023-04-11T12:06:34.020Z,97708.56
2023-04-11T12:09:40.547Z,97696.50
2023-04-11T12:12:54.450Z,97690.88
2023-04-11T12:16:04.647Z,97683.66
2023-04-11T12:19:12.011Z,97686.28
2023-04-11T12:22:18.660Z,97684.97
2023-04-11T12:25:25.911Z,97676.94
2023-04-11T12:28:35.102Z,97674.53
2023-04-11T12:31:43.765Z,97674.78
2023-04-11T12:34:51.396Z,97658.13
2023-04-11T12:37:57.126Z,97653.03
2023-04-11T12:41:19.764Z,97658.03
2023-04-11T12:44:32.478Z,97639.16
2023-04-11T12:47:39.525Z,97621.91
2023-04-11T12:50:45.202Z,97635.47
2023-04-11T12:53:53.076Z,97623.22
2023-04-11T12:56:59.768Z,97615.69
2023-04-11T13:00:13.643Z,97628.03
2023-04-11T13:03:19.411Z,97627.31
2023-04-11T13:06:26.364Z,97630.78
2023-04-11T13:09:32.672Z,97622.28
2023-04-11T13:12:41.821Z,97620.97
2023-04-11T13:15:50.139Z,97613.97
2023-04-11T13:18:56.690Z,97612.06
2023-04-11T13:22:02.919Z,97595.22
2023-04-11T13:25:11.223Z,97598.47
2023-04-11T13:28:16.957Z,97597.09
2023-04-11T13:31:26.995Z,97598.16
2023-04-11T13:34:33.618Z,97607.38
2023-04-11T13:37:40.066Z,97603.78
2023-04-11T13:40:45.894Z,97589.56
2023-04-11T13:43:52.621Z,97591.63
2023-04-11T13:47:01.566Z,97595.91
2023-04-11T13:50:11.171Z,97590.81
2023-04-11T13:53:16.880Z,97587.41
2023-04-11T13:56:23.593Z,97589.38
2023-04-11T13:59:31.074Z,97589.16
2023-04-11T14:02:40.330Z,97585.50
2023-04-11T14:05:46.285Z,97580.06
2023-04-11T14:08:52.632Z,97597.31
2023-04-11T14:11:58.467Z,97597.47
2023-04-11T14:15:04.920Z,97579.91
2023-04-11T14:18:13.324Z,97588.66
2023-04-11T14:21:20.008Z,97590.09
2023-04-11T14:24:25.822Z,97591.69
2023-04-11T14:27:32.534Z,97596.38
2023-04-11T14:30:38.482Z,97590.81
2023-04-11T14:33:47.551Z,97604.16
2023-04-11T14:36:53.165Z,97595.81
2023-04-11T14:39:59.521Z,97597.97
2023-04-11T14:43:06.543Z,97594.22
2023-04-11T14:46:12.922Z,97594.91
2023-04-11T14:49:21.302Z,97593.97
2023-04-11T14:52:27.790Z,97609.34
2023-04-11T14:55:33.529Z,97613.44
2023-04-11T14:58:40.201Z,97613.03
2023-04-11T15:01:46.062Z,97627.13
2023-04-11T15:04:55.259Z,97629.91
2023-04-11T15:08:01.146Z,97632.84
2023-04-11T15:11:08.687Z,97630.50
2023-04-11T15:14:32.312Z,97636.97
2023-04-11T15:17:44.035Z,97636.00
2023-04-11T15:20:53.066Z,97636.38
2023-04-11T15:23:59.777Z,97653.78
2023-04-11T15:27:05.511Z,97647.91
2023-04-11T15:30:13.889Z,97652.59
2023-04-11T15:33:21.304Z,97659.34
2023-04-11T15:36:31.891Z,97655.50
2023-04-11T15:39:37.690Z,97657.00
2023-04-11T15:42:44.573Z,97657.00
2023-04-11T15:45:50.751Z,97658.41
2023-04-11T15:48:57.219Z,97658.41
2023-04-11T15:52:05.492Z,97652.09
2023-04-11T15:55:12.314Z,97656.75
2023-04-11T15:58:18.168Z,97652.53
2023-04-11T16:01:25.849Z,97655.78
2023-04-11T16:04:31.696Z,97658.63
2023-04-11T16:07:40.944Z,97651.34
2023-04-11T16:10:47.161Z,97651.72
2023-04-11T16:13:53.743Z,97654.16
2023-04-11T16:17:00.291Z,97650.72
2023-04-11T16:20:12.132Z,97658.84
2023-04-11T16:23:20.691Z,97649.31
2023-04-11T16:26:27.233Z,97652.75
2023-04-11T16:29:33.071Z,97653.34
2023-04-11T16:32:39.495Z,97657.84
2023-04-11T16:35:45.173Z,97655.22
2023-04-11T16:38:54.255Z,97652.34
2023-04-11T16:41:59.874Z,97648.50
2023-04-11T16:45:07.009Z,97643.81
2023-04-11T16:48:15.578Z,97649.09
2023-04-11T16:51:21.921Z,97644.81
2023-04-11T16:54:30.492Z,97644.72
2023-04-11T16:57:37.511Z,97649.41
2023-04-11T17:00:43.664Z,97666.25
2023-04-11T17:03:52.445Z,97670.25
2023-04-11T17:06:58.578Z,97661.75
2023-04-11T17:10:09.416Z,97681.69
2023-04-11T17:13:16.194Z,97692.25
2023-04-11T17:16:22.801Z,97680.47
2023-04-11T17:19:29.136Z,97678.00
2023-04-11T17:22:35.629Z,97673.78
2023-04-11T17:25:43.879Z,97693.25
2023-04-11T17:28:50.284Z,97684.06
2023-04-11T17:31:56.063Z,97696.22
2023-04-11T17:35:04.714Z,97688.91
2023-04-11T17:38:10.799Z,97700.63
2023-04-11T17:41:19.939Z,97701.25
2023-04-11T17:44:25.576Z,97709.28
2023-04-11T17:47:33.287Z,97719.16
2023-04-11T17:50:39.014Z,97724.94
2023-04-11T17:53:45.373Z,97729.28
2023-04-11T17:56:53.739Z,97728.63
2023-04-11T18:00:02.333Z,97719.16
2023-04-11T18:03:10.845Z,97723.78
2023-04-11T18:06:22.396Z,97732.16
2023-04-11T18:09:32.023Z,97739.38
2023-04-11T18:12:41.565Z,97742.28
2023-04-11T18:15:47.313Z,97750.09
2023-04-11T18:18:53.890Z,97751.63
2023-04-11T18:22:02.248Z,97757.41
2023-04-11T18:25:10.846Z,97756.06
2023-04-11T18:28:19.006Z,97758.03
2023-04-11T18:31:25.936Z,97757.88
2023-04-11T18:34:31.701Z,97769.34
2023-04-11T18:37:40.570Z,97779.94
2023-04-11T18:40:46.908Z,97772.34
2023-04-11T18:43:58.038Z,97789.72
2023-04-11T18:47:06.115Z,97797.13
2023-04-11T18:50:13.954Z,97788.53
2023-04-11T18:53:19.808Z,97791.41
2023-04-11T18:56:26.901Z,97802.13
2023-04-11T18:59:39.831Z,97784.47
2023-04-11T19:02:50.403Z,97783.09
2023-04-11T19:05:56.577Z,97813.22
2023-04-11T19:09:03.045Z,97807.72
2023-04-11T19:12:09.581Z,97807.09
2023-04-11T19:15:20.888Z,97808.22
2023-04-11T19:18:26.605Z,97808.91
2023-04-11T19:21:33.251Z,97798.75
2023-04-11T19:24:39.024Z,97797.59
2023-04-11T19:27:46.404Z,97801.28
2023-04-11T19:30:54.716Z,97795.44
2023-04-11T19:34:03.878Z,97797.59
2023-04-11T19:37:09.805Z,97796.44
2023-04-11T19:40:16.835Z,97794.31
2023-04-11T19:43:22.715Z,97787.38
2023-04-11T19:46:31.849Z,97797.22
2023-04-11T19:49:37.874Z,97803.28
2023-04-11T19:52:47.702Z,97800.00
2023-04-11T19:55:54.512Z,97803.88
2023-04-11T19:59:01.075Z,97817.56
2023-04-11T20:02:09.395Z,97808.66
2023-04-11T20:05:18.996Z,97815.13
2023-04-11T20:08:26.943Z,97815.56
2023-04-11T20:11:33.761Z,97809.34
2023-04-11T20:14:39.958Z,97809.66
2023-04-11T20:17:48.946Z,97813.16
2023-04-11T20:20:54.669Z,97808.88
2023-04-11T20:24:03.847Z,97810.34
2023-04-11T20:27:10.041Z,97809.03
2023-04-11T20:30:18.131Z,97816.16
2023-04-11T20:33:27.860Z,97815.53
2023-04-11T20:36:36.130Z,97819.84
2023-04-11T20:39:42.502Z,97812.19
2023-04-11T20:42:52.346Z,97807.72
2023-04-11T20:46:00.259Z,97809.22
2023-04-11T20:49:11.165Z,97813.19
2023-04-11T20:52:18.271Z,97808.72
2023-04-11T20:55:25.527Z,97811.84
2023-04-11T20:58:31.934Z,97818.97
2023-04-11T21:01:39.123Z,97816.34
2023-04-11T21:04:48.862Z,97815.88
2023-04-11T21:07:58.634Z,97819.59
2023-04-11T21:11:04.909Z,97813.34
2023-04-11T21:14:11.694Z,97815.94
2023-04-11T21:17:20.858Z,97812.16
2023-04-11T21:20:29.845Z,97812.91
2023-04-11T21:23:35.904Z,97806.47
2023-04-11T21:26:43.055Z,97803.34
2023-04-11T21:29:52.174Z,97811.22
2023-04-11T21:32:58.607Z,97819.78
2023-04-11T21:36:08.151Z,97814.63
2023-04-11T21:39:14.988Z,97825.81
2023-04-11T21:42:21.274Z,97819.50
2023-04-11T21:45:33.139Z,97826.19
2023-04-11T21:48:38.996Z,97817.78
2023-04-11T21:51:48.060Z,97826.13
2023-04-11T21:54:53.960Z,97831.34
2023-04-11T21:58:00.509Z,97822.06
2023-04-11T22:01:07.245Z,97830.25
2023-04-11T22:04:13.874Z,97823.03
2023-04-11T22:07:24.416Z,97826.81
2023-04-11T22:10:41.236Z,97824.53
2023-04-11T22:13:52.792Z,97826.56
2023-04-11T22:17:01.013Z,97823.06
2023-04-11T22:20:09.398Z,97826.81
2023-04-11T22:23:18.517Z,97824.72
2023-04-11T22:26:26.828Z,97834.03
2023-04-11T22:29:34.634Z,97834.56
2023-04-11T22:32:40.313Z,97829.50
2023-04-11T22:35:51.318Z,97826.06
2023-04-11T22:38:59.627Z,97840.13
2023-04-11T22:42:06.954Z,97829.84
2023-04-11T22:45:14.409Z,97830.50
2023-04-11T22:48:20.856Z,97835.09
2023-04-11T22:51:30.397Z,97839.69
2023-04-11T22:54:39.757Z,97831.84
2023-04-11T22:57:45.869Z,97837.41
2023-04-11T23:00:52.284Z,97827.13
2023-04-11T23:03:58.349Z,97825.78
2023-04-11T23:07:05.227Z,97825.34
2023-04-11T23:10:15.620Z,97819.25
2023-04-11T23:13:22.486Z,97824.97
2023-04-11T23:16:28.091Z,97815.50
2023-04-11T23:19:34.631Z,97822.50
2023-04-11T23:22:42.021Z,97818.94
2023-04-11T23:25:50.975Z,97822.38
2023-04-11T23:28:57.271Z,97828.25
2023-04-11T23:32:03.706Z,97824.81
2023-04-11T23:35:12.108Z,97823.03
2023-04-11T23:38:18.535Z,97825.03
2023-04-11T23:41:29.446Z,97825.81
2023-04-11T23:44:35.860Z,97825.81
2023-04-11T23:47:41.767Z,97815.53
2023-04-11T23:50:48.599Z,97818.97
2023-04-11T23:53:54.363Z,97827.94
2023-04-11T23:57:03.283Z,97819.78
